Time;durP1;ratioP1;P1;durP2;ratioP2;P2;SDS_P1;SDS_P2;PMS_P1;PMS_P2;Temp;Humidity;BMP_temperature;BMP_pressure;BME280_temperature;BME280_humidity;BME280_pressure;Samples;Min_cycle;Max_cycle;Signal;HPM_P1;HPM_P2
2023/01/28 00:01:07;;;;;;;2.10;1.90;;;3.80;99.90;;;;;;4978921;28;20199;-75
2023/01/28 00:03:35;;;;;;;2.08;1.73;;;3.80;99.90;;;;;;5002182;28;20231;-73
2023/01/28 00:06:05;;;;;;;1.90;1.40;;;3.80;99.90;;;;;;4998356;28;20198;-73
2023/01/28 00:08:33;;;;;;;1.65;1.52;;;3.80;99.90;;;;;;5000175;28;20621;-73
2023/01/28 00:11:03;;;;;;;1.92;1.77;;;3.80;99.90;;;;;;5010658;28;20284;-74
2023/01/28 00:13:34;;;;;;;1.80;1.70;;;3.80;99.90;;;;;;4998285;28;20222;-75
2023/01/28 00:16:07;;;;;;;3.47;2.30;;;3.80;99.90;;;;;;4993332;28;20288;-74
2023/01/28 00:18:36;;;;;;;2.80;1.90;;;3.80;99.90;;;;;;5007015;28;20229;-75
2023/01/28 00:21:07;;;;;;;1.77;1.67;;;3.80;99.90;;;;;;4994759;28;20189;-73
2023/01/28 00:23:37;;;;;;;2.25;1.80;;;3.80;99.90;;;;;;4999218;28;20227;-73
2023/01/28 00:26:08;;;;;;;1.83;1.40;;;3.80;99.90;;;;;;5009310;28;20203;-74
2023/01/28 00:28:39;;;;;;;2.65;1.83;;;3.80;99.90;;;;;;5015338;28;20222;-74
2023/01/28 00:31:09;;;;;;;1.90;1.70;;;3.80;99.90;;;;;;5003042;28;20189;-74
2023/01/28 00:33:37;;;;;;;2.00;1.80;;;3.80;99.90;;;;;;4997840;28;20720;-74
2023/01/28 00:36:06;;;;;;;2.00;1.90;;;3.80;99.90;;;;;;5008572;28;20309;-75
2023/01/28 00:38:35;;;;;;;1.60;1.50;;;3.80;99.90;;;;;;5000698;28;20199;-74
2023/01/28 00:41:11;;;;;;;2.10;1.90;;;3.80;99.90;;;;;;5022749;28;20228;-74
2023/01/28 00:43:42;;;;;;;2.65;2.17;;;3.80;99.90;;;;;;5020479;28;20217;-75
2023/01/28 00:46:12;;;;;;;1.33;1.23;;;3.80;99.90;;;;;;5000573;28;20206;-74
2023/01/28 00:48:42;;;;;;;2.67;1.85;;;3.80;99.90;;;;;;5000347;28;20234;-74
2023/01/28 00:51:14;;;;;;;1.65;1.55;;;3.80;99.90;;;;;;4993216;28;20225;-75
2023/01/28 00:53:43;;;;;;;1.60;1.50;;;3.80;99.90;;;;;;5023297;28;20291;-70
2023/01/28 00:56:15;;;;;;;2.28;2.03;;;3.80;99.90;;;;;;5020953;28;20206;-71
2023/01/28 00:58:44;;;;;;;3.15;1.77;;;3.80;99.90;;;;;;5018873;28;20299;-76
2023/01/28 01:01:15;;;;;;;2.00;1.77;;;3.80;99.90;;;;;;4994051;28;20275;-75
2023/01/28 01:03:43;;;;;;;2.08;1.60;;;3.80;99.90;;;;;;4999567;28;20336;-76
2023/01/28 01:06:14;;;;;;;2.25;1.75;;;3.80;99.90;;;;;;5005103;28;20193;-74
2023/01/28 01:08:49;;;;;;;2.15;1.40;;;3.80;99.90;;;;;;5009982;28;20207;-75
2023/01/28 01:11:18;;;;;;;1.50;1.20;;;3.80;99.90;;;;;;4990593;28;20194;-76
2023/01/28 01:13:53;;;;;;;1.55;1.45;;;3.80;99.90;;;;;;4996051;28;20218;-77
2023/01/28 01:16:23;;;;;;;2.10;1.50;;;3.80;99.90;;;;;;5005332;28;20196;-74
2023/01/28 01:18:52;;;;;;;1.60;1.35;;;3.80;99.90;;;;;;5012735;28;20214;-75
2023/01/28 01:21:23;;;;;;;1.98;1.52;;;3.80;99.90;;;;;;5007707;28;20202;-74
2023/01/28 01:23:52;;;;;;;1.52;1.42;;;3.80;99.90;;;;;;4997597;28;20279;-77
2023/01/28 01:26:22;;;;;;;1.40;1.30;;;3.80;99.90;;;;;;5002970;28;20673;-74
2023/01/28 01:28:52;;;;;;;1.60;1.30;;;3.80;99.90;;;;;;5005384;28;20235;-74
2023/01/28 01:31:22;;;;;;;1.77;1.40;;;3.80;99.90;;;;;;5003839;28;20201;-73
2023/01/28 01:33:52;;;;;;;1.88;1.38;;;3.80;99.90;;;;;;5020588;28;20233;-74
2023/01/28 01:36:21;;;;;;;2.25;1.40;;;3.80;99.90;;;;;;5000062;28;20205;-75
2023/01/28 01:38:53;;;;;;;1.75;1.30;;;3.80;99.90;;;;;;5009955;28;20202;-74
2023/01/28 01:41:26;;;;;;;1.48;1.35;;;3.80;99.90;;;;;;4999450;28;20194;-74
2023/01/28 01:43:58;;;;;;;2.25;1.75;;;3.80;99.90;;;;;;4997681;28;20767;-75
2023/01/28 01:46:33;;;;;;;1.33;1.23;;;3.80;99.90;;;;;;5008154;28;20249;-74
2023/01/28 01:49:07;;;;;;;2.05;1.40;;;3.80;99.90;;;;;;4997660;28;20202;-74
2023/01/28 01:51:37;;;;;;;1.15;0.95;;;3.80;99.90;;;;;;5001122;28;20212;-77
2023/01/28 01:54:06;;;;;;;1.90;1.30;;;3.80;99.90;;;;;;4997917;28;20316;-74
2023/01/28 01:56:40;;;;;;;1.92;1.30;;;3.80;99.90;;;;;;5002710;28;20198;-75
2023/01/28 01:59:12;;;;;;;1.50;1.40;;;3.80;99.90;;;;;;5005610;28;20228;-75
2023/01/28 02:01:41;;;;;;;1.70;1.50;;;3.80;99.90;;;;;;5004811;28;20442;-73
2023/01/28 02:04:16;;;;;;;1.65;1.38;;;3.80;99.90;;;;;;5004225;28;20647;-75
2023/01/28 02:06:47;;;;;;;1.40;1.30;;;3.80;99.90;;;;;;5017638;28;20287;-74
2023/01/28 02:09:28;;;;;;;1.75;1.55;;;3.80;99.90;;;;;;5007505;28;20226;-75
2023/01/28 02:12:01;;;;;;;1.50;1.40;;;3.80;99.90;;;;;;4996617;28;20617;-75
2023/01/28 02:14:35;;;;;;;1.50;1.38;;;3.80;99.90;;;;;;5003145;28;20226;-75
2023/01/28 02:17:04;;;;;;;2.63;1.48;;;3.80;99.90;;;;;;5001790;28;20198;-74
2023/01/28 02:19:38;;;;;;;2.03;1.50;;;3.80;99.90;;;;;;5007710;28;20213;-74
2023/01/28 02:22:27;;;;;;;1.67;1.50;;;3.80;99.90;;;;;;5014664;28;20207;-74
2023/01/28 02:25:19;;;;;;;2.55;1.40;;;3.80;99.90;;;;;;5007661;28;20237;-74
2023/01/28 02:28:09;;;;;;;1.95;1.75;;;3.80;99.90;;;;;;4998754;28;20270;-75
2023/01/28 02:30:41;;;;;;;2.20;1.60;;;3.80;99.90;;;;;;5007186;28;20873;-74
2023/01/28 02:33:18;;;;;;;1.60;1.40;;;3.80;99.90;;;;;;5001377;28;20225;-74
2023/01/28 02:35:52;;;;;;;1.85;1.40;;;3.80;99.90;;;;;;4998347;28;20231;-77
2023/01/28 02:38:26;;;;;;;1.63;1.50;;;3.80;99.90;;;;;;5003869;28;20256;-75
2023/01/28 02:41:02;;;;;;;2.38;2.10;;;3.70;99.90;;;;;;5000221;28;20201;-75
2023/01/28 02:43:34;;;;;;;2.03;1.83;;;3.80;99.90;;;;;;4998037;28;20228;-75
2023/01/28 02:48:59;;;;;;;1.77;1.35;;;3.80;99.90;;;;;;5012474;28;20216;-76
2023/01/28 02:51:38;;;;;;;1.88;1.63;;;3.80;99.90;;;;;;5006782;28;20634;-75
2023/01/28 02:54:13;;;;;;;1.70;1.58;;;3.80;99.90;;;;;;5018625;28;20225;-75
2023/01/28 02:56:48;;;;;;;1.50;1.40;;;3.80;99.90;;;;;;4995668;28;20697;-75
2023/01/28 02:59:32;;;;;;;1.08;1.00;;;3.80;99.90;;;;;;5006924;28;20222;-75
2023/01/28 03:02:13;;;;;;;2.20;1.55;;;3.70;99.90;;;;;;4997047;28;20198;-75
2023/01/28 03:04:49;;;;;;;1.60;1.30;;;3.80;99.90;;;;;;5000532;28;20233;-75
2023/01/28 03:07:20;;;;;;;2.20;1.83;;;3.80;99.90;;;;;;4998811;28;20679;-74
2023/01/28 03:09:50;;;;;;;1.58;1.48;;;3.80;99.90;;;;;;4999211;28;20225;-75
2023/01/28 03:37:59;;;;;;;1.33;1.23;;;3.80;99.90;;;;;;4998444;28;20206;-69
2023/01/28 03:40:28;;;;;;;1.60;1.35;;;3.80;99.90;;;;;;4998559;28;20228;-70
2023/01/28 03:42:57;;;;;;;1.85;1.75;;;3.80;99.90;;;;;;4999041;28;20253;-71
2023/01/28 03:45:36;;;;;;;1.48;1.20;;;3.80;99.90;;;;;;5000361;28;20623;-70
2023/01/28 03:48:07;;;;;;;0.90;0.70;;;3.80;99.90;;;;;;4989961;28;20209;-73
2023/01/28 03:50:35;;;;;;;1.30;1.15;;;3.80;99.90;;;;;;4996982;28;20574;-70
2023/01/28 03:53:12;;;;;;;1.67;1.50;;;3.70;99.90;;;;;;4996677;28;20225;-69
2023/01/28 03:55:52;;;;;;;2.47;1.88;;;3.70;99.90;;;;;;5014129;28;20244;-69
2023/01/28 03:58:25;;;;;;;2.45;1.20;;;3.80;99.90;;;;;;5006094;28;20631;-69
2023/01/28 04:00:54;;;;;;;1.48;1.30;;;3.80;99.90;;;;;;4998639;28;20245;-70
2023/01/28 04:03:24;;;;;;;1.92;1.38;;;3.70;99.90;;;;;;5015323;28;20618;-70
2023/01/28 04:06:08;;;;;;;4.32;2.00;;;3.80;99.90;;;;;;5014596;28;20904;-70
2023/01/28 04:09:00;;;;;;;1.52;1.35;;;3.70;99.90;;;;;;5001034;28;20652;-71
2023/01/28 04:11:34;;;;;;;1.77;1.50;;;3.80;99.90;;;;;;4991669;28;20190;-71
2023/01/28 04:14:04;;;;;;;1.50;1.35;;;3.80;99.90;;;;;;5006940;28;20233;-68
2023/01/28 04:16:50;;;;;;;2.05;1.27;;;3.80;99.90;;;;;;5001538;28;20267;-70
2023/01/28 04:19:21;;;;;;;1.75;1.65;;;3.80;99.90;;;;;;5018634;28;20225;-68
2023/01/28 04:21:52;;;;;;;1.63;1.38;;;3.80;99.90;;;;;;5007084;28;20564;-69
2023/01/28 04:24:22;;;;;;;1.50;1.27;;;3.70;99.90;;;;;;4999111;28;21069;-70
2023/01/28 04:26:50;;;;;;;1.80;1.50;;;3.80;99.90;;;;;;5002563;28;20196;-69
2023/01/28 04:29:19;;;;;;;1.75;1.65;;;3.70;99.90;;;;;;5002232;28;20337;-69
2023/01/28 04:31:50;;;;;;;2.15;1.95;;;3.70;99.90;;;;;;5015745;28;20226;-70
2023/01/28 04:34:28;;;;;;;2.53;1.90;;;3.70;99.90;;;;;;5016280;28;20251;-68
2023/01/28 04:37:23;;;;;;;1.23;1.10;;;3.70;99.90;;;;;;4989840;28;20562;-68
2023/01/28 04:40:25;;;;;;;1.65;1.55;;;3.80;99.90;;;;;;5006160;28;20666;-68
2023/01/28 04:43:02;;;;;;;2.47;1.20;;;3.70;99.90;;;;;;4998863;28;20217;-69
2023/01/28 04:45:51;;;;;;;1.10;0.95;;;3.70;99.90;;;;;;5021599;28;20235;-70
2023/01/28 04:48:43;;;;;;;1.02;0.95;;;3.70;99.90;;;;;;5002549;28;20210;-70
2023/01/28 04:51:31;;;;;;;1.35;1.25;;;3.70;99.90;;;;;;5008202;28;20236;-71
2023/01/28 04:54:22;;;;;;;1.50;1.40;;;3.70;99.90;;;;;;5015189;28;20232;-69
2023/01/28 04:56:52;;;;;;;1.70;1.30;;;3.80;99.90;;;;;;5014977;28;20215;-69
2023/01/28 04:59:20;;;;;;;1.48;1.30;;;3.70;99.90;;;;;;5024629;28;20720;-70
2023/01/28 05:01:49;;;;;;;1.73;1.40;;;3.70;99.90;;;;;;5019233;28;20198;-69
2023/01/28 05:04:17;;;;;;;1.60;1.30;;;3.70;99.90;;;;;;5006229;28;20258;-69
2023/01/28 05:06:48;;;;;;;2.13;1.92;;;3.70;99.90;;;;;;4993420;28;20202;-69
2023/01/28 05:09:25;;;;;;;1.50;1.40;;;3.70;99.90;;;;;;5010353;28;20228;-70
2023/01/28 05:11:54;;;;;;;1.40;1.30;;;3.80;99.90;;;;;;5000080;28;20221;-69
2023/01/28 05:14:23;;;;;;;1.63;1.10;;;3.70;99.90;;;;;;4998003;28;20209;-69
2023/01/28 05:16:59;;;;;;;1.63;1.50;;;3.70;99.90;;;;;;4997571;28;20205;-69
2023/01/28 05:19:28;;;;;;;2.00;1.50;;;3.70;99.90;;;;;;4979660;28;20202;-68
2023/01/28 05:21:59;;;;;;;1.60;1.50;;;3.70;99.90;;;;;;4997921;28;20200;-70
2023/01/28 05:24:41;;;;;;;1.45;1.35;;;3.70;99.90;;;;;;4990964;28;20213;-69
2023/01/28 05:27:09;;;;;;;2.17;1.65;;;3.70;99.90;;;;;;4993298;28;20214;-70
2023/01/28 05:29:37;;;;;;;4.03;2.90;;;3.70;99.90;;;;;;4990419;28;20234;-69
2023/01/28 05:32:06;;;;;;;4.18;3.70;;;3.70;99.90;;;;;;4999554;28;20201;-69
2023/01/28 05:34:34;;;;;;;2.53;2.10;;;3.70;99.90;;;;;;5004259;28;20222;-69
2023/01/28 05:37:10;;;;;;;1.83;1.73;;;3.70;99.90;;;;;;4995785;28;20256;-69
2023/01/28 05:39:39;;;;;;;3.78;3.28;;;3.70;99.90;;;;;;5019344;28;20333;-69
2023/01/28 05:42:09;;;;;;;2.90;2.17;;;3.70;99.90;;;;;;4993036;28;20194;-68
2023/01/28 05:44:43;;;;;;;4.03;3.60;;;3.70;99.90;;;;;;4999494;28;20255;-69
2023/01/28 05:47:34;;;;;;;2.30;2.10;;;3.70;99.90;;;;;;4994512;28;20252;-70
2023/01/28 05:50:15;;;;;;;2.63;1.90;;;3.70;99.90;;;;;;5021080;28;20221;-69
2023/01/28 05:52:50;;;;;;;2.25;2.00;;;3.70;99.90;;;;;;4993541;28;20201;-69
2023/01/28 05:55:25;;;;;;;3.25;2.85;;;3.70;99.90;;;;;;5012305;28;20244;-70
2023/01/28 05:57:54;;;;;;;3.35;2.63;;;3.70;99.90;;;;;;5008506;28;20224;-70
2023/01/28 06:00:24;;;;;;;3.00;2.40;;;3.70;99.90;;;;;;5018675;28;20222;-69
2023/01/28 06:02:53;;;;;;;2.90;1.77;;;3.70;99.90;;;;;;5000266;28;20209;-70
2023/01/28 06:05:23;;;;;;;3.50;2.40;;;3.70;99.90;;;;;;5005402;28;20217;-68
2023/01/28 06:07:54;;;;;;;2.15;1.77;;;3.70;99.90;;;;;;4994151;28;20201;-68
2023/01/28 06:10:23;;;;;;;4.80;3.70;;;3.70;99.90;;;;;;5008816;28;20228;-69
2023/01/28 06:12:51;;;;;;;3.55;2.53;;;3.70;99.90;;;;;;5014831;28;20570;-68
2023/01/28 06:15:52;;;;;;;4.60;2.65;;;3.70;99.90;;;;;;4966441;28;20244;-68
2023/01/28 06:18:25;;;;;;;3.08;2.38;;;3.70;99.90;;;;;;4998213;28;20194;-67
2023/01/28 06:20:54;;;;;;;1.80;1.70;;;3.70;99.90;;;;;;5005055;28;20720;-75
2023/01/28 06:23:24;;;;;;;3.22;2.65;;;3.70;99.90;;;;;;5008906;28;20221;-74
2023/01/28 06:25:54;;;;;;;6.00;2.47;;;3.70;99.90;;;;;;5005405;28;20547;-73
2023/01/28 06:28:24;;;;;;;2.20;1.80;;;3.70;99.90;;;;;;5004088;28;20215;-73
2023/01/28 06:30:53;;;;;;;3.60;2.05;;;3.70;99.90;;;;;;5025055;28;20551;-75
2023/01/28 06:33:23;;;;;;;2.55;1.67;;;3.70;99.90;;;;;;5009802;28;20245;-73
2023/01/28 06:35:51;;;;;;;2.38;2.03;;;3.70;99.90;;;;;;4989260;28;20226;-73
2023/01/28 06:38:19;;;;;;;2.10;1.90;;;3.70;99.90;;;;;;4996451;28;20207;-76
2023/01/28 06:40:54;;;;;;;4.43;2.90;;;3.70;99.90;;;;;;4993307;28;20627;-74
2023/01/28 06:43:26;;;;;;;3.10;1.83;;;3.70;99.90;;;;;;4997624;28;20675;-75
2023/01/28 06:45:54;;;;;;;2.38;2.10;;;3.70;99.90;;;;;;4996356;28;20222;-74
2023/01/28 06:48:23;;;;;;;3.13;2.13;;;3.70;99.90;;;;;;4996982;28;20204;-74
2023/01/28 06:50:52;;;;;;;3.30;2.05;;;3.70;99.90;;;;;;5017947;28;20590;-73
2023/01/28 06:53:21;;;;;;;2.90;1.65;;;3.70;99.90;;;;;;5002981;28;20665;-75
2023/01/28 06:55:49;;;;;;;1.67;1.58;;;3.70;99.90;;;;;;5002221;28;20224;-75
2023/01/28 06:58:19;;;;;;;3.22;2.25;;;3.70;99.90;;;;;;5015592;28;20458;-75
2023/01/28 07:00:47;;;;;;;3.33;2.42;;;3.70;99.90;;;;;;5014763;28;20289;-73
2023/01/28 07:03:15;;;;;;;4.60;3.78;;;3.70;99.90;;;;;;5006319;28;20221;-74
2023/01/28 07:05:44;;;;;;;3.55;2.85;;;3.70;99.90;;;;;;5004580;28;20198;-74
2023/01/28 07:08:12;;;;;;;4.00;2.90;;;3.70;99.90;;;;;;4998585;28;20293;-74
2023/01/28 07:10:40;;;;;;;3.22;2.50;;;3.70;99.90;;;;;;5012024;28;21063;-76
2023/01/28 07:13:09;;;;;;;4.38;2.45;;;3.70;99.90;;;;;;5015977;28;20693;-75
2023/01/28 07:15:39;;;;;;;4.43;2.78;;;3.70;99.90;;;;;;5014411;28;20230;-74
2023/01/28 07:18:07;;;;;;;4.78;2.60;;;3.70;99.90;;;;;;4998887;28;20677;-74
2023/01/28 07:20:35;;;;;;;3.78;2.80;;;3.70;99.90;;;;;;5009812;28;20772;-75
2023/01/28 07:23:04;;;;;;;3.67;2.33;;;3.70;99.90;;;;;;5003072;28;20494;-75
2023/01/28 07:25:32;;;;;;;2.55;1.80;;;3.70;99.90;;;;;;5004328;28;20221;-73
2023/01/28 07:28:01;;;;;;;3.60;2.63;;;3.70;99.90;;;;;;5010329;28;20210;-75
2023/01/28 07:30:29;;;;;;;3.65;2.08;;;3.70;99.90;;;;;;4991441;28;20249;-74
2023/01/28 07:32:59;;;;;;;2.70;2.00;;;3.70;99.90;;;;;;5006079;28;20245;-73
2023/01/28 07:35:34;;;;;;;2.25;1.95;;;3.70;99.90;;;;;;5004518;28;20253;-70
2023/01/28 07:38:08;;;;;;;3.15;2.10;;;3.70;99.90;;;;;;4989918;28;20195;-69
2023/01/28 07:40:44;;;;;;;3.00;2.22;;;3.70;99.90;;;;;;5001675;28;20620;-68
2023/01/28 07:43:14;;;;;;;3.75;2.65;;;3.70;99.90;;;;;;4997831;28;20211;-75
2023/01/28 07:45:43;;;;;;;3.08;2.65;;;3.70;99.90;;;;;;5017564;28;20194;-74
2023/01/28 07:48:14;;;;;;;6.72;5.00;;;3.70;99.90;;;;;;4993465;28;20227;-74
2023/01/28 07:50:42;;;;;;;5.00;3.20;;;3.70;99.90;;;;;;4997673;28;20217;-75
2023/01/28 07:53:13;;;;;;;3.97;3.03;;;3.70;99.90;;;;;;5015697;28;20657;-73
2023/01/28 07:55:41;;;;;;;6.30;4.15;;;3.70;99.90;;;;;;4986786;28;20268;-74
2023/01/28 07:58:12;;;;;;;4.65;3.15;;;3.70;99.90;;;;;;5008184;28;20630;-74
2023/01/28 08:00:43;;;;;;;4.18;3.53;;;3.70;99.90;;;;;;5015947;28;20216;-74
2023/01/28 08:03:18;;;;;;;4.25;3.65;;;3.70;99.90;;;;;;5002418;28;20217;-74
2023/01/28 08:05:48;;;;;;;3.55;2.60;;;3.70;99.90;;;;;;4998227;28;20189;-74
2023/01/28 08:08:17;;;;;;;3.95;2.63;;;3.70;99.90;;;;;;4994976;28;20356;-73
2023/01/28 08:10:46;;;;;;;5.20;3.33;;;3.70;99.90;;;;;;4999736;28;20206;-74
2023/01/28 08:13:15;;;;;;;3.13;2.78;;;3.70;99.90;;;;;;4996882;28;20217;-74
2023/01/28 08:15:44;;;;;;;3.30;2.38;;;3.70;99.90;;;;;;4997014;28;20244;-75
2023/01/28 08:18:14;;;;;;;3.78;2.50;;;3.70;99.90;;;;;;4989004;28;20225;-74
2023/01/28 08:20:46;;;;;;;3.13;2.10;;;3.70;99.90;;;;;;4995569;28;20640;-73
2023/01/28 08:23:16;;;;;;;4.10;2.45;;;3.70;99.90;;;;;;5006715;28;20218;-74
2023/01/28 08:25:45;;;;;;;3.97;2.80;;;3.70;99.90;;;;;;5004172;28;20185;-74
2023/01/28 08:28:14;;;;;;;3.95;2.72;;;3.70;99.90;;;;;;4990403;28;20198;-73
2023/01/28 08:30:43;;;;;;;4.32;2.67;;;3.70;99.90;;;;;;4996220;28;20285;-73
2023/01/28 08:33:14;;;;;;;2.97;2.15;;;3.70;99.90;;;;;;5005894;28;20236;-72
2023/01/28 08:35:44;;;;;;;2.80;2.38;;;3.70;99.90;;;;;;5005833;28;20229;-74
2023/01/28 08:38:14;;;;;;;2.75;2.40;;;3.70;99.90;;;;;;5003607;28;20198;-74
2023/01/28 08:40:42;;;;;;;4.82;2.95;;;3.70;99.90;;;;;;4997400;28;20225;-73
2023/01/28 08:43:10;;;;;;;4.50;3.47;;;3.70;99.90;;;;;;5004762;28;20443;-74
2023/01/28 08:45:40;;;;;;;2.38;2.03;;;3.70;99.90;;;;;;4993853;28;20633;-74
2023/01/28 08:48:12;;;;;;;3.38;2.50;;;3.70;99.90;;;;;;4999088;28;20218;-74
2023/01/28 08:50:40;;;;;;;3.58;2.65;;;3.70;99.90;;;;;;4996034;28;20237;-74
2023/01/28 08:53:12;;;;;;;3.85;2.70;;;3.70;99.90;;;;;;4987630;28;20223;-75
2023/01/28 08:55:40;;;;;;;5.10;2.50;;;3.70;99.90;;;;;;4998462;28;20256;-74
2023/01/28 08:58:12;;;;;;;2.88;2.33;;;3.70;99.90;;;;;;4997558;28;20194;-73
2023/01/28 09:00:41;;;;;;;3.85;2.58;;;3.70;99.90;;;;;;4996378;28;20305;-74
2023/01/28 09:03:10;;;;;;;4.13;3.20;;;3.70;99.90;;;;;;5006723;28;20296;-74
2023/01/28 09:05:39;;;;;;;3.25;2.80;;;3.70;99.90;;;;;;4995839;28;20214;-74
2023/01/28 09:08:10;;;;;;;5.63;3.08;;;3.70;99.90;;;;;;5004123;28;20200;-73
2023/01/28 09:10:40;;;;;;;4.07;3.30;;;3.70;99.90;;;;;;5003172;28;20225;-75
2023/01/28 09:13:10;;;;;;;3.85;2.75;;;3.70;99.90;;;;;;5005079;28;20237;-75
2023/01/28 09:15:39;;;;;;;2.60;2.40;;;3.70;99.90;;;;;;4997009;28;20249;-73
2023/01/28 09:18:08;;;;;;;3.22;2.33;;;3.70;99.90;;;;;;4998578;28;20206;-73
2023/01/28 09:20:37;;;;;;;3.40;2.60;;;3.70;99.90;;;;;;5007327;28;20252;-73
2023/01/28 09:23:06;;;;;;;3.50;2.50;;;3.70;99.90;;;;;;4995764;28;20283;-74
2023/01/28 09:25:36;;;;;;;3.30;2.53;;;3.70;99.90;;;;;;5015384;28;20222;-74
2023/01/28 09:28:05;;;;;;;3.45;2.80;;;3.70;99.90;;;;;;4998660;28;20704;-74
2023/01/28 09:30:35;;;;;;;3.00;2.15;;;3.70;99.90;;;;;;5006841;28;20221;-75
2023/01/28 09:33:05;;;;;;;2.90;2.60;;;3.70;99.90;;;;;;5008515;28;20245;-74
2023/01/28 09:35:34;;;;;;;4.28;2.53;;;3.70;99.90;;;;;;5006631;28;20349;-73
2023/01/28 09:38:02;;;;;;;3.22;2.55;;;3.70;99.90;;;;;;5025233;28;20237;-73
2023/01/28 09:40:37;;;;;;;3.25;2.95;;;3.70;99.90;;;;;;4991850;28;20664;-74
2023/01/28 09:43:45;;;;;;;3.70;3.13;;;3.70;99.90;;;;;;4998170;28;20634;-74
2023/01/28 09:46:15;;;;;;;2.92;2.63;;;3.70;99.90;;;;;;5001989;28;20222;-74
2023/01/28 09:48:46;;;;;;;3.10;2.42;;;3.70;99.90;;;;;;5010836;28;20643;-73
2023/01/28 09:51:29;;;;;;;2.75;2.55;;;3.70;99.90;;;;;;5001657;28;20284;-74
2023/01/28 09:54:01;;;;;;;3.47;2.90;;;3.70;99.90;;;;;;4998939;28;20214;-74
2023/01/28 09:56:37;;;;;;;3.25;2.67;;;3.70;99.90;;;;;;5003076;28;20700;-75
2023/01/28 09:59:17;;;;;;;3.63;2.85;;;3.70;99.90;;;;;;5000981;28;20229;-74
2023/01/28 10:01:53;;;;;;;4.95;2.80;;;3.70;99.90;;;;;;5018466;28;20247;-74
2023/01/28 10:04:44;;;;;;;3.20;2.55;;;3.70;99.90;;;;;;5019340;28;20571;-74
2023/01/28 10:07:31;;;;;;;4.28;3.60;;;3.70;99.90;;;;;;4992151;28;20202;-76
2023/01/28 10:10:04;;;;;;;2.72;2.15;;;3.70;99.90;;;;;;5017990;28;20234;-74
2023/01/28 10:13:00;;;;;;;4.35;2.45;;;3.70;99.90;;;;;;5002164;28;20206;-73
2023/01/28 10:15:53;;;;;;;3.50;2.55;;;3.70;99.90;;;;;;4992229;28;20686;-73
2023/01/28 10:18:30;;;;;;;3.25;2.55;;;3.70;99.90;;;;;;5011630;28;20225;-73
2023/01/28 10:21:06;;;;;;;4.18;2.75;;;3.70;99.90;;;;;;5005785;28;20567;-74
2023/01/28 10:23:46;;;;;;;4.35;3.08;;;3.70;99.90;;;;;;4992852;28;20259;-72
2023/01/28 10:26:23;;;;;;;4.38;3.08;;;3.70;99.90;;;;;;4996378;28;20209;-74
2023/01/28 10:28:56;;;;;;;3.13;2.83;;;3.70;99.90;;;;;;5002259;28;20261;-74
2023/01/28 10:31:33;;;;;;;3.58;2.92;;;3.70;99.90;;;;;;5019436;28;20629;-74
2023/01/28 10:34:03;;;;;;;3.55;3.20;;;3.70;99.90;;;;;;5021078;28;20686;-73
2023/01/28 10:36:31;;;;;;;5.15;3.10;;;3.70;99.90;;;;;;5002975;28;20345;-74
2023/01/28 10:39:00;;;;;;;4.93;3.20;;;3.70;99.90;;;;;;5002819;28;20621;-74
2023/01/28 10:41:28;;;;;;;3.63;2.70;;;3.70;99.90;;;;;;5007968;28;20202;-74
2023/01/28 10:43:58;;;;;;;4.63;3.85;;;3.70;99.90;;;;;;4999606;28;20275;-76
2023/01/28 10:46:32;;;;;;;3.67;2.85;;;3.70;99.90;;;;;;4996692;28;20312;-76
2023/01/28 10:49:07;;;;;;;5.55;3.63;;;3.70;99.90;;;;;;4994880;28;20291;-73
2023/01/28 10:51:37;;;;;;;3.65;3.20;;;3.70;99.90;;;;;;5009667;28;20190;-75
2023/01/28 10:54:19;;;;;;;4.07;3.20;;;3.70;99.90;;;;;;5023795;28;20221;-74
2023/01/28 10:56:50;;;;;;;4.50;4.10;;;3.70;99.90;;;;;;4990957;28;20206;-74
2023/01/28 10:59:26;;;;;;;3.08;2.65;;;3.70;99.90;;;;;;5021477;28;20272;-75
2023/01/28 11:01:57;;;;;;;4.65;3.38;;;3.70;99.90;;;;;;4999697;28;20222;-69
2023/01/28 11:04:29;;;;;;;4.22;3.80;;;3.70;99.90;;;;;;5021347;28;20752;-68
2023/01/28 11:07:02;;;;;;;4.20;3.20;;;3.70;99.90;;;;;;5005353;28;20304;-73
2023/01/28 11:09:32;;;;;;;3.90;3.30;;;3.70;99.90;;;;;;5002240;28;20218;-73
2023/01/28 11:12:12;;;;;;;4.47;3.38;;;3.70;99.90;;;;;;5003151;28;20206;-73
2023/01/28 11:14:51;;;;;;;2.85;2.63;;;3.70;99.90;;;;;;5005804;28;20249;-68
2023/01/28 11:17:23;;;;;;;3.75;3.25;;;3.70;99.90;;;;;;5001580;28;20636;-68
2023/01/28 11:19:52;;;;;;;4.43;3.13;;;3.70;99.90;;;;;;5020719;28;20736;-67
2023/01/28 11:22:28;;;;;;;4.45;3.53;;;3.70;99.90;;;;;;5003186;28;20780;-67
2023/01/28 11:24:57;;;;;;;4.57;4.10;;;3.70;99.90;;;;;;5015838;28;20221;-68
2023/01/28 11:27:32;;;;;;;3.20;2.90;;;3.70;99.90;;;;;;5007197;28;20216;-68
2023/01/28 11:30:03;;;;;;;4.43;3.50;;;3.70;99.90;;;;;;5007127;28;20225;-67
2023/01/28 11:32:32;;;;;;;5.20;3.67;;;3.70;99.90;;;;;;5006787;28;20198;-69
2023/01/28 11:35:00;;;;;;;6.32;3.63;;;3.70;99.90;;;;;;4997947;28;20521;-68
2023/01/28 11:37:30;;;;;;;3.80;3.17;;;3.70;99.90;;;;;;4999689;28;20263;-68
2023/01/28 11:40:19;;;;;;;4.32;3.92;;;3.70;99.90;;;;;;4997155;28;20218;-67
2023/01/28 11:42:51;;;;;;;4.47;3.45;;;3.70;99.90;;;;;;4993944;28;20197;-68
2023/01/28 11:45:30;;;;;;;3.80;3.50;;;3.70;99.90;;;;;;4993606;28;20244;-74
2023/01/28 11:48:11;;;;;;;4.57;4.07;;;3.70;99.90;;;;;;4999395;28;20552;-73
2023/01/28 11:50:46;;;;;;;8.00;6.30;;;3.70;99.90;;;;;;5009775;28;20518;-75
2023/01/28 11:53:44;;;;;;;8.88;7.38;;;3.70;99.90;;;;;;4989704;28;20777;-73
2023/01/28 11:56:44;;;;;;;5.80;4.53;;;3.70;99.90;;;;;;4979785;28;20232;-73
2023/01/28 11:59:36;;;;;;;7.82;5.95;;;3.70;99.90;;;;;;4987458;28;20742;-73
2023/01/28 12:02:20;;;;;;;6.45;5.18;;;3.70;99.90;;;;;;4975623;28;20226;-75
2023/01/28 12:05:05;;;;;;;10.60;7.57;;;3.70;99.90;;;;;;5020896;28;20298;-74
2023/01/28 12:07:44;;;;;;;7.32;5.32;;;3.70;99.90;;;;;;4994705;28;20208;-75
2023/01/28 12:10:19;;;;;;;4.93;4.22;;;3.70;99.90;;;;;;5017025;28;20667;-74
2023/01/28 12:13:08;;;;;;;4.65;3.80;;;3.70;99.90;;;;;;4998038;28;20566;-73
2023/01/28 12:16:12;;;;;;;5.07;4.10;;;3.70;99.90;;;;;;5018280;28;20510;-73
2023/01/28 12:19:00;;;;;;;4.05;3.40;;;3.70;99.90;;;;;;4963727;28;20334;-74
2023/01/28 12:21:37;;;;;;;5.47;4.68;;;3.70;99.90;;;;;;4994317;28;20220;-75
2023/01/28 12:24:20;;;;;;;11.55;8.50;;;3.70;99.90;;;;;;5024555;28;20275;-74
2023/01/28 12:26:57;;;;;;;6.47;4.90;;;3.70;99.90;;;;;;4997862;28;20317;-75
2023/01/28 12:29:34;;;;;;;4.95;4.00;;;3.70;99.90;;;;;;5014952;28;20220;-75
2023/01/28 12:32:39;;;;;;;5.13;4.30;;;3.70;99.90;;;;;;5000158;28;20222;-74
2023/01/28 12:35:34;;;;;;;5.35;4.40;;;3.70;99.90;;;;;;5007520;28;20226;-73
2023/01/28 12:38:11;;;;;;;6.72;4.45;;;3.70;99.90;;;;;;4999383;28;20206;-73
2023/01/28 12:41:01;;;;;;;6.70;5.03;;;3.70;99.90;;;;;;5004022;28;20691;-73
2023/01/28 12:43:54;;;;;;;6.07;4.75;;;3.70;99.90;;;;;;5001291;28;20214;-77
2023/01/28 12:46:36;;;;;;;8.50;6.28;;;3.70;99.90;;;;;;5004063;28;20238;-73
2023/01/28 12:49:10;;;;;;;6.47;4.38;;;3.70;99.90;;;;;;4998717;28;20308;-74
2023/01/28 12:51:58;;;;;;;6.55;4.60;;;3.70;99.90;;;;;;5008672;28;20198;-73
2023/01/28 12:54:34;;;;;;;7.30;4.85;;;3.70;99.90;;;;;;5018987;28;20230;-73
2023/01/28 12:57:03;;;;;;;6.40;5.22;;;3.70;99.90;;;;;;5023558;28;20197;-73
2023/01/28 12:59:39;;;;;;;5.68;4.97;;;3.70;99.90;;;;;;5024044;28;20225;-74
2023/01/28 13:02:23;;;;;;;6.18;5.43;;;3.70;99.90;;;;;;5001018;28;20327;-75
2023/01/28 13:04:58;;;;;;;6.15;4.75;;;3.70;99.90;;;;;;5022479;28;20225;-74
2023/01/28 13:07:35;;;;;;;6.32;4.88;;;3.70;99.90;;;;;;5006117;28;20626;-75
2023/01/28 13:10:09;;;;;;;11.07;7.10;;;3.70;99.90;;;;;;5005493;28;20231;-76
2023/01/28 13:12:40;;;;;;;7.32;5.47;;;3.70;99.90;;;;;;5004687;28;20201;-66
2023/01/28 13:15:13;;;;;;;7.70;5.80;;;3.70;99.90;;;;;;4999116;28;20222;-69
2023/01/28 13:17:54;;;;;;;6.93;5.05;;;3.70;99.90;;;;;;4995130;28;20261;-74
2023/01/28 13:20:47;;;;;;;6.47;5.22;;;3.70;99.90;;;;;;4999690;28;20746;-74
2023/01/28 13:23:26;;;;;;;6.60;5.45;;;3.70;99.90;;;;;;4998084;28;20775;-73
2023/01/28 13:25:55;;;;;;;7.30;5.00;;;3.70;99.90;;;;;;5000774;28;20744;-75
2023/01/28 13:28:28;;;;;;;6.32;5.13;;;3.70;99.90;;;;;;4998720;28;20192;-74
2023/01/28 13:31:05;;;;;;;7.20;5.03;;;3.70;99.90;;;;;;4995449;28;20206;-74
2023/01/28 13:33:36;;;;;;;7.13;4.72;;;3.70;99.90;;;;;;5005542;28;20764;-74
2023/01/28 13:36:19;;;;;;;6.38;4.72;;;3.70;99.90;;;;;;4993402;28;20566;-74
2023/01/28 13:38:59;;;;;;;5.55;4.97;;;3.70;99.90;;;;;;5001902;28;20214;-73
2023/01/28 13:41:37;;;;;;;5.57;4.45;;;3.70;99.90;;;;;;5008007;28;20276;-74
2023/01/28 13:44:18;;;;;;;11.70;9.63;;;3.70;99.90;;;;;;4991232;28;20619;-74
2023/01/28 13:46:47;;;;;;;9.55;7.30;;;3.70;99.90;;;;;;5001554;28;20531;-73
2023/01/28 13:49:22;;;;;;;11.32;8.10;;;3.70;99.90;;;;;;5001832;28;20209;-74
2023/01/28 13:51:59;;;;;;;9.70;7.55;;;3.70;99.90;;;;;;5001465;28;20629;-74
2023/01/28 13:54:32;;;;;;;8.60;6.25;;;3.70;99.90;;;;;;5000315;28;20224;-75
2023/01/28 13:57:34;;;;;;;8.57;5.95;;;3.70;99.90;;;;;;5016527;28;20571;-73
2023/01/28 14:00:11;;;;;;;7.57;5.88;;;3.70;99.90;;;;;;5007553;28;20232;-74
2023/01/28 14:03:15;;;;;;;8.95;6.38;;;3.70;99.90;;;;;;5013546;28;20197;-75